sensor_id;sensor_type;location;lat;lon;timestamp;P1;durP1;ratioP1;P2;durP2;ratioP2
2313;SDS011;42279;51.388;7.000;2023-05-10T00:01:15;8.93;;;7.33;;
2313;SDS011;42279;51.388;7.000;2023-05-10T00:03:41;10.23;;;9.23;;
2313;SDS011;42279;51.388;7.000;2023-05-10T00:06:08;10.13;;;7.70;;
2313;SDS011;42279;51.388;7.000;2023-05-10T00:08:34;11.07;;;8.30;;
2313;SDS011;42279;51.388;7.000;2023-05-10T00:11:03;11.53;;;8.93;;
2313;SDS011;42279;51.388;7.000;2023-05-10T00:13:32;9.80;;;8.80;;
2313;SDS011;42279;51.388;7.000;2023-05-10T00:15:58;11.60;;;8.57;;
2313;SDS011;42279;51.388;7.000;2023-05-10T00:18:24;9.50;;;8.60;;
2313;SDS011;42279;51.388;7.000;2023-05-10T00:20:50;9.97;;;8.97;;
2313;SDS011;42279;51.388;7.000;2023-05-10T00:23:16;14.17;;;9.80;;
2313;SDS011;42279;51.388;7.000;2023-05-10T00:25:42;10.10;;;9.10;;
2313;SDS011;42279;51.388;7.000;2023-05-10T00:28:08;11.77;;;9.10;;
2313;SDS011;42279;51.388;7.000;2023-05-10T00:30:35;8.60;;;7.60;;
2313;SDS011;42279;51.388;7.000;2023-05-10T00:33:01;9.90;;;8.53;;
2313;SDS011;42279;51.388;7.000;2023-05-10T00:35:27;10.53;;;9.30;;
2313;SDS011;42279;51.388;7.000;2023-05-10T00:37:53;10.10;;;8.70;;
2313;SDS011;42279;51.388;7.000;2023-05-10T00:40:20;9.77;;;8.43;;
2313;SDS011;42279;51.388;7.000;2023-05-10T00:42:46;11.10;;;9.37;;
2313;SDS011;42279;51.388;7.000;2023-05-10T00:45:12;12.23;;;9.90;;
2313;SDS011;42279;51.388;7.000;2023-05-10T00:47:38;10.57;;;9.50;;
2313;SDS011;42279;51.388;7.000;2023-05-10T00:50:05;9.33;;;8.40;;
2313;SDS011;42279;51.388;7.000;2023-05-10T00:52:31;9.83;;;8.80;;
2313;SDS011;42279;51.388;7.000;2023-05-10T00:54:57;11.43;;;10.17;;
2313;SDS011;42279;51.388;7.000;2023-05-10T00:57:23;10.17;;;9.07;;
2313;SDS011;42279;51.388;7.000;2023-05-10T00:59:50;11.60;;;9.40;;
2313;SDS011;42279;51.388;7.000;2023-05-10T01:02:17;12.77;;;10.53;;
2313;SDS011;42279;51.388;7.000;2023-05-10T01:04:43;9.87;;;8.93;;
2313;SDS011;42279;51.388;7.000;2023-05-10T01:07:09;8.80;;;8.07;;
2313;SDS011;42279;51.388;7.000;2023-05-10T01:09:35;13.10;;;8.70;;
2313;SDS011;42279;51.388;7.000;2023-05-10T01:12:02;10.30;;;8.47;;
2313;SDS011;42279;51.388;7.000;2023-05-10T01:14:31;9.90;;;9.00;;
2313;SDS011;42279;51.388;7.000;2023-05-10T01:16:57;10.63;;;9.63;;
2313;SDS011;42279;51.388;7.000;2023-05-10T01:19:25;10.17;;;9.17;;
2313;SDS011;42279;51.388;7.000;2023-05-10T01:40:04;11.40;;;9.90;;
2313;SDS011;42279;51.388;7.000;2023-05-10T01:42:37;14.30;;;11.73;;
2313;SDS011;42279;51.388;7.000;2023-05-10T01:45:13;12.03;;;10.67;;
2313;SDS011;42279;51.388;7.000;2023-05-10T01:47:42;12.27;;;10.97;;
2313;SDS011;42279;51.388;7.000;2023-05-10T01:50:15;11.43;;;10.30;;
2313;SDS011;42279;51.388;7.000;2023-05-10T01:52:42;12.83;;;11.50;;
2313;SDS011;42279;51.388;7.000;2023-05-10T01:55:14;13.53;;;10.73;;
2313;SDS011;42279;51.388;7.000;2023-05-10T01:57:42;12.47;;;11.27;;
2313;SDS011;42279;51.388;7.000;2023-05-10T02:00:09;13.50;;;11.43;;
2313;SDS011;42279;51.388;7.000;2023-05-10T02:02:45;13.10;;;11.70;;
2313;SDS011;42279;51.388;7.000;2023-05-10T02:05:12;16.27;;;11.67;;
2313;SDS011;42279;51.388;7.000;2023-05-10T02:07:38;14.57;;;11.53;;
2313;SDS011;42279;51.388;7.000;2023-05-10T02:10:05;13.83;;;10.80;;
2313;SDS011;42279;51.388;7.000;2023-05-10T02:12:34;16.20;;;12.30;;
2313;SDS011;42279;51.388;7.000;2023-05-10T02:15:01;12.37;;;10.57;;
2313;SDS011;42279;51.388;7.000;2023-05-10T02:17:35;13.47;;;11.17;;
2313;SDS011;42279;51.388;7.000;2023-05-10T02:20:03;17.97;;;13.23;;
2313;SDS011;42279;51.388;7.000;2023-05-10T02:22:31;14.80;;;11.93;;
2313;SDS011;42279;51.388;7.000;2023-05-10T02:24:57;13.20;;;11.80;;
2313;SDS011;42279;51.388;7.000;2023-05-10T02:27:24;13.23;;;11.63;;
2313;SDS011;42279;51.388;7.000;2023-05-10T02:29:51;13.87;;;12.10;;
2313;SDS011;42279;51.388;7.000;2023-05-10T02:32:17;15.27;;;11.63;;
2313;SDS011;42279;51.388;7.000;2023-05-10T02:34:44;15.43;;;12.17;;
2313;SDS011;42279;51.388;7.000;2023-05-10T02:37:14;15.40;;;11.97;;
2313;SDS011;42279;51.388;7.000;2023-05-10T02:39:41;12.53;;;11.23;;
2313;SDS011;42279;51.388;7.000;2023-05-10T02:42:11;12.70;;;10.67;;
2313;SDS011;42279;51.388;7.000;2023-05-10T02:44:40;13.37;;;11.00;;
2313;SDS011;42279;51.388;7.000;2023-05-10T02:47:07;12.60;;;10.67;;
2313;SDS011;42279;51.388;7.000;2023-05-10T02:49:36;13.13;;;10.63;;
2313;SDS011;42279;51.388;7.000;2023-05-10T02:52:03;14.07;;;11.90;;
2313;SDS011;42279;51.388;7.000;2023-05-10T02:54:32;19.57;;;12.87;;
2313;SDS011;42279;51.388;7.000;2023-05-10T02:57:00;17.90;;;11.73;;
2313;SDS011;42279;51.388;7.000;2023-05-10T02:59:26;19.63;;;13.10;;
2313;SDS011;42279;51.388;7.000;2023-05-10T03:01:55;14.00;;;11.37;;
2313;SDS011;42279;51.388;7.000;2023-05-10T03:04:21;14.17;;;10.80;;
2313;SDS011;42279;51.388;7.000;2023-05-10T03:06:47;11.80;;;10.70;;
2313;SDS011;42279;51.388;7.000;2023-05-10T03:09:13;14.83;;;11.10;;
2313;SDS011;42279;51.388;7.000;2023-05-10T03:17:04;11.83;;;9.83;;
2313;SDS011;42279;51.388;7.000;2023-05-10T03:19:34;13.30;;;10.70;;
2313;SDS011;42279;51.388;7.000;2023-05-10T03:22:03;13.50;;;11.57;;
2313;SDS011;42279;51.388;7.000;2023-05-10T03:24:30;15.20;;;11.53;;
2313;SDS011;42279;51.388;7.000;2023-05-10T03:27:00;15.30;;;10.70;;
2313;SDS011;42279;51.388;7.000;2023-05-10T03:29:30;15.63;;;12.10;;
2313;SDS011;42279;51.388;7.000;2023-05-10T03:32:00;17.73;;;13.40;;
2313;SDS011;42279;51.388;7.000;2023-05-10T03:34:26;17.63;;;12.53;;
2313;SDS011;42279;51.388;7.000;2023-05-10T03:36:52;18.37;;;13.70;;
2313;SDS011;42279;51.388;7.000;2023-05-10T03:39:18;18.20;;;13.13;;
2313;SDS011;42279;51.388;7.000;2023-05-10T03:41:46;21.60;;;15.50;;
2313;SDS011;42279;51.388;7.000;2023-05-10T03:44:12;20.63;;;15.10;;
2313;SDS011;42279;51.388;7.000;2023-05-10T03:46:38;22.13;;;14.13;;
2313;SDS011;42279;51.388;7.000;2023-05-10T03:49:03;16.67;;;13.90;;
2313;SDS011;42279;51.388;7.000;2023-05-10T03:51:30;17.77;;;12.47;;
2313;SDS011;42279;51.388;7.000;2023-05-10T03:53:56;15.73;;;12.90;;
2313;SDS011;42279;51.388;7.000;2023-05-10T03:56:22;19.50;;;14.63;;
2313;SDS011;42279;51.388;7.000;2023-05-10T03:58:48;21.63;;;14.70;;
2313;SDS011;42279;51.388;7.000;2023-05-10T04:01:14;19.77;;;13.60;;
2313;SDS011;42279;51.388;7.000;2023-05-10T04:03:40;18.33;;;12.90;;
2313;SDS011;42279;51.388;7.000;2023-05-10T04:06:06;14.63;;;12.63;;
2313;SDS011;42279;51.388;7.000;2023-05-10T04:08:36;18.20;;;12.27;;
2313;SDS011;42279;51.388;7.000;2023-05-10T04:11:09;17.10;;;12.73;;
2313;SDS011;42279;51.388;7.000;2023-05-10T04:13:36;17.90;;;13.27;;
2313;SDS011;42279;51.388;7.000;2023-05-10T04:16:02;19.50;;;12.30;;
2313;SDS011;42279;51.388;7.000;2023-05-10T04:18:31;17.90;;;13.00;;
2313;SDS011;42279;51.388;7.000;2023-05-10T04:20:57;24.17;;;14.40;;
2313;SDS011;42279;51.388;7.000;2023-05-10T04:23:23;18.30;;;12.87;;
2313;SDS011;42279;51.388;7.000;2023-05-10T04:25:49;19.90;;;13.10;;
2313;SDS011;42279;51.388;7.000;2023-05-10T04:28:18;20.80;;;13.63;;
2313;SDS011;42279;51.388;7.000;2023-05-10T04:30:44;19.10;;;13.33;;
2313;SDS011;42279;51.388;7.000;2023-05-10T04:33:10;16.17;;;12.80;;
2313;SDS011;42279;51.388;7.000;2023-05-10T04:35:36;19.70;;;14.40;;
2313;SDS011;42279;51.388;7.000;2023-05-10T04:38:03;24.13;;;14.20;;
2313;SDS011;42279;51.388;7.000;2023-05-10T04:40:29;21.93;;;14.60;;
2313;SDS011;42279;51.388;7.000;2023-05-10T04:42:55;22.97;;;14.27;;
2313;SDS011;42279;51.388;7.000;2023-05-10T04:45:21;23.00;;;13.83;;
2313;SDS011;42279;51.388;7.000;2023-05-10T04:47:47;26.23;;;14.93;;
2313;SDS011;42279;51.388;7.000;2023-05-10T04:50:13;25.67;;;16.07;;
2313;SDS011;42279;51.388;7.000;2023-05-10T04:52:40;25.10;;;15.10;;
2313;SDS011;42279;51.388;7.000;2023-05-10T04:55:06;26.53;;;16.13;;
2313;SDS011;42279;51.388;7.000;2023-05-10T04:57:34;27.80;;;16.90;;
2313;SDS011;42279;51.388;7.000;2023-05-10T05:00:00;23.23;;;15.57;;
2313;SDS011;42279;51.388;7.000;2023-05-10T05:02:26;28.07;;;18.27;;
2313;SDS011;42279;51.388;7.000;2023-05-10T05:04:52;29.37;;;18.10;;
2313;SDS011;42279;51.388;7.000;2023-05-10T05:07:18;33.23;;;17.70;;
2313;SDS011;42279;51.388;7.000;2023-05-10T05:09:45;27.17;;;17.43;;
2313;SDS011;42279;51.388;7.000;2023-05-10T05:12:10;40.17;;;18.70;;
2313;SDS011;42279;51.388;7.000;2023-05-10T05:14:39;30.43;;;19.33;;
2313;SDS011;42279;51.388;7.000;2023-05-10T05:17:05;34.53;;;20.17;;
2313;SDS011;42279;51.388;7.000;2023-05-10T05:19:31;35.40;;;20.17;;
2313;SDS011;42279;51.388;7.000;2023-05-10T05:21:57;35.70;;;21.33;;
2313;SDS011;42279;51.388;7.000;2023-05-10T05:24:23;33.27;;;20.20;;
2313;SDS011;42279;51.388;7.000;2023-05-10T05:26:49;37.10;;;20.13;;
2313;SDS011;42279;51.388;7.000;2023-05-10T05:29:15;31.73;;;19.50;;
2313;SDS011;42279;51.388;7.000;2023-05-10T05:31:41;38.20;;;22.03;;
2313;SDS011;42279;51.388;7.000;2023-05-10T05:34:06;38.47;;;21.70;;
2313;SDS011;42279;51.388;7.000;2023-05-10T05:36:36;37.27;;;22.40;;
2313;SDS011;42279;51.388;7.000;2023-05-10T05:39:05;34.23;;;21.23;;
2313;SDS011;42279;51.388;7.000;2023-05-10T05:41:31;35.67;;;22.27;;
2313;SDS011;42279;51.388;7.000;2023-05-10T05:43:57;29.37;;;19.27;;
2313;SDS011;42279;51.388;7.000;2023-05-10T05:46:23;36.90;;;22.57;;
2313;SDS011;42279;51.388;7.000;2023-05-10T05:48:49;39.50;;;22.80;;
2313;SDS011;42279;51.388;7.000;2023-05-10T05:51:15;34.23;;;21.83;;
2313;SDS011;42279;51.388;7.000;2023-05-10T05:53:42;36.07;;;20.10;;
2313;SDS011;42279;51.388;7.000;2023-05-10T05:56:08;25.60;;;19.50;;
2313;SDS011;42279;51.388;7.000;2023-05-10T05:58:34;33.43;;;20.00;;
2313;SDS011;42279;51.388;7.000;2023-05-10T06:01:00;32.17;;;20.23;;
2313;SDS011;42279;51.388;7.000;2023-05-10T06:03:26;28.60;;;18.67;;
2313;SDS011;42279;51.388;7.000;2023-05-10T06:05:52;27.47;;;18.90;;
2313;SDS011;42279;51.388;7.000;2023-05-10T06:08:18;32.70;;;20.77;;
2313;SDS011;42279;51.388;7.000;2023-05-10T06:10:45;30.27;;;20.80;;
2313;SDS011;42279;51.388;7.000;2023-05-10T06:13:11;31.33;;;19.73;;
2313;SDS011;42279;51.388;7.000;2023-05-10T06:15:37;32.20;;;20.10;;
2313;SDS011;42279;51.388;7.000;2023-05-10T06:18:03;24.50;;;18.83;;
2313;SDS011;42279;51.388;7.000;2023-05-10T06:20:30;33.67;;;24.10;;
2313;SDS011;42279;51.388;7.000;2023-05-10T06:22:57;30.03;;;20.47;;
2313;SDS011;42279;51.388;7.000;2023-05-10T06:25:23;34.07;;;22.17;;
2313;SDS011;42279;51.388;7.000;2023-05-10T06:27:49;33.23;;;21.00;;
2313;SDS011;42279;51.388;7.000;2023-05-10T06:30:18;33.00;;;20.37;;
2313;SDS011;42279;51.388;7.000;2023-05-10T06:32:45;32.40;;;20.67;;
2313;SDS011;42279;51.388;7.000;2023-05-10T06:35:11;35.47;;;23.00;;
2313;SDS011;42279;51.388;7.000;2023-05-10T06:37:37;28.73;;;20.00;;
2313;SDS011;42279;51.388;7.000;2023-05-10T06:40:03;34.33;;;20.50;;
2313;SDS011;42279;51.388;7.000;2023-05-10T06:42:29;30.87;;;20.97;;
2313;SDS011;42279;51.388;7.000;2023-05-10T06:44:55;33.37;;;21.70;;
2313;SDS011;42279;51.388;7.000;2023-05-10T06:47:21;39.50;;;22.70;;
2313;SDS011;42279;51.388;7.000;2023-05-10T06:49:47;38.53;;;24.10;;
2313;SDS011;42279;51.388;7.000;2023-05-10T06:52:13;46.60;;;23.97;;
2313;SDS011;42279;51.388;7.000;2023-05-10T06:54:39;37.17;;;23.00;;
2313;SDS011;42279;51.388;7.000;2023-05-10T06:57:05;32.43;;;22.50;;
2313;SDS011;42279;51.388;7.000;2023-05-10T06:59:31;34.07;;;22.67;;
2313;SDS011;42279;51.388;7.000;2023-05-10T07:01:57;36.93;;;23.57;;
2313;SDS011;42279;51.388;7.000;2023-05-10T07:04:23;38.00;;;22.67;;
2313;SDS011;42279;51.388;7.000;2023-05-10T07:06:49;45.90;;;25.70;;
2313;SDS011;42279;51.388;7.000;2023-05-10T07:09:18;38.43;;;24.67;;
2313;SDS011;42279;51.388;7.000;2023-05-10T07:11:44;36.10;;;21.60;;
2313;SDS011;42279;51.388;7.000;2023-05-10T07:14:10;35.33;;;20.67;;
2313;SDS011;42279;51.388;7.000;2023-05-10T07:16:36;38.83;;;20.80;;
2313;SDS011;42279;51.388;7.000;2023-05-10T07:19:02;32.47;;;22.07;;
2313;SDS011;42279;51.388;7.000;2023-05-10T07:21:31;32.63;;;19.67;;
2313;SDS011;42279;51.388;7.000;2023-05-10T07:23:57;30.17;;;19.07;;
2313;SDS011;42279;51.388;7.000;2023-05-10T07:26:24;31.97;;;18.77;;
2313;SDS011;42279;51.388;7.000;2023-05-10T07:28:50;36.37;;;19.80;;
2313;SDS011;42279;51.388;7.000;2023-05-10T07:31:19;28.37;;;18.60;;
2313;SDS011;42279;51.388;7.000;2023-05-10T07:33:45;29.80;;;18.50;;
2313;SDS011;42279;51.388;7.000;2023-05-10T07:36:11;34.00;;;19.13;;
2313;SDS011;42279;51.388;7.000;2023-05-10T07:38:37;38.27;;;20.17;;
2313;SDS011;42279;51.388;7.000;2023-05-10T07:41:06;37.40;;;19.03;;
2313;SDS011;42279;51.388;7.000;2023-05-10T07:43:32;32.50;;;19.43;;
2313;SDS011;42279;51.388;7.000;2023-05-10T07:45:58;34.43;;;20.13;;
2313;SDS011;42279;51.388;7.000;2023-05-10T07:48:24;30.40;;;19.30;;
2313;SDS011;42279;51.388;7.000;2023-05-10T07:50:50;29.03;;;18.17;;
2313;SDS011;42279;51.388;7.000;2023-05-10T07:53:16;34.93;;;21.87;;
2313;SDS011;42279;51.388;7.000;2023-05-10T07:55:43;31.23;;;20.40;;
2313;SDS011;42279;51.388;7.000;2023-05-10T07:58:10;29.10;;;17.17;;
2313;SDS011;42279;51.388;7.000;2023-05-10T08:00:36;31.93;;;19.13;;
2313;SDS011;42279;51.388;7.000;2023-05-10T08:03:04;36.20;;;18.63;;
2313;SDS011;42279;51.388;7.000;2023-05-10T08:05:30;32.80;;;19.47;;
2313;SDS011;42279;51.388;7.000;2023-05-10T08:07:56;28.70;;;17.47;;
2313;SDS011;42279;51.388;7.000;2023-05-10T08:10:23;33.87;;;17.37;;
2313;SDS011;42279;51.388;7.000;2023-05-10T08:12:49;27.70;;;15.63;;
2313;SDS011;42279;51.388;7.000;2023-05-10T08:15:15;23.90;;;14.73;;
2313;SDS011;42279;51.388;7.000;2023-05-10T08:17:41;18.73;;;13.60;;
2313;SDS011;42279;51.388;7.000;2023-05-10T08:20:08;18.17;;;13.63;;
2313;SDS011;42279;51.388;7.000;2023-05-10T08:22:34;22.77;;;14.83;;
2313;SDS011;42279;51.388;7.000;2023-05-10T08:25:00;21.77;;;15.00;;
2313;SDS011;42279;51.388;7.000;2023-05-10T08:27:26;19.50;;;13.90;;
2313;SDS011;42279;51.388;7.000;2023-05-10T08:29:52;18.27;;;14.50;;
2313;SDS011;42279;51.388;7.000;2023-05-10T08:32:18;22.10;;;14.87;;
2313;SDS011;42279;51.388;7.000;2023-05-10T08:34:44;20.00;;;14.17;;
2313;SDS011;42279;51.388;7.000;2023-05-10T08:37:10;19.77;;;15.10;;
2313;SDS011;42279;51.388;7.000;2023-05-10T08:39:38;18.83;;;13.90;;
2313;SDS011;42279;51.388;7.000;2023-05-10T08:42:04;19.30;;;15.20;;
2313;SDS011;42279;51.388;7.000;2023-05-10T08:44:32;18.13;;;13.43;;
2313;SDS011;42279;51.388;7.000;2023-05-10T08:46:59;15.47;;;12.77;;
2313;SDS011;42279;51.388;7.000;2023-05-10T08:49:25;16.40;;;12.43;;
2313;SDS011;42279;51.388;7.000;2023-05-10T08:51:54;19.63;;;13.83;;
2313;SDS011;42279;51.388;7.000;2023-05-10T08:54:21;17.83;;;13.90;;
2313;SDS011;42279;51.388;7.000;2023-05-10T08:56:47;16.47;;;13.50;;
2313;SDS011;42279;51.388;7.000;2023-05-10T08:59:13;21.90;;;15.27;;
2313;SDS011;42279;51.388;7.000;2023-05-10T09:01:40;22.83;;;14.27;;
2313;SDS011;42279;51.388;7.000;2023-05-10T09:04:07;20.30;;;15.40;;
2313;SDS011;42279;51.388;7.000;2023-05-10T09:06:33;26.60;;;16.53;;
2313;SDS011;42279;51.388;7.000;2023-05-10T09:08:59;27.13;;;18.07;;
2313;SDS011;42279;51.388;7.000;2023-05-10T09:11:25;24.50;;;16.20;;
2313;SDS011;42279;51.388;7.000;2023-05-10T09:13:53;28.83;;;18.87;;
2313;SDS011;42279;51.388;7.000;2023-05-10T09:16:20;28.30;;;18.40;;
2313;SDS011;42279;51.388;7.000;2023-05-10T09:18:46;22.70;;;14.67;;
2313;SDS011;42279;51.388;7.000;2023-05-10T09:21:12;19.77;;;14.87;;
2313;SDS011;42279;51.388;7.000;2023-05-10T09:23:42;23.80;;;15.70;;
2313;SDS011;42279;51.388;7.000;2023-05-10T09:26:08;26.27;;;17.37;;
2313;SDS011;42279;51.388;7.000;2023-05-10T09:28:34;29.90;;;19.20;;
2313;SDS011;42279;51.388;7.000;2023-05-10T09:31:15;31.90;;;19.27;;
2313;SDS011;42279;51.388;7.000;2023-05-10T09:33:44;30.50;;;19.67;;
2313;SDS011;42279;51.388;7.000;2023-05-10T09:36:11;25.83;;;17.87;;
2313;SDS011;42279;51.388;7.000;2023-05-10T09:38:47;23.97;;;17.20;;
2313;SDS011;42279;51.388;7.000;2023-05-10T09:41:17;23.53;;;16.80;;
2313;SDS011;42279;51.388;7.000;2023-05-10T09:43:43;31.80;;;19.33;;
2313;SDS011;42279;51.388;7.000;2023-05-10T09:46:09;25.87;;;18.23;;
2313;SDS011;42279;51.388;7.000;2023-05-10T09:48:39;25.13;;;17.90;;
2313;SDS011;42279;51.388;7.000;2023-05-10T09:51:07;23.70;;;17.03;;
2313;SDS011;42279;51.388;7.000;2023-05-10T09:53:33;29.47;;;18.30;;
2313;SDS011;42279;51.388;7.000;2023-05-10T09:55:58;24.23;;;15.43;;
2313;SDS011;42279;51.388;7.000;2023-05-10T09:58:25;23.93;;;15.73;;
2313;SDS011;42279;51.388;7.000;2023-05-10T10:00:51;24.47;;;16.70;;
2313;SDS011;42279;51.388;7.000;2023-05-10T10:03:17;20.17;;;14.60;;
2313;SDS011;42279;51.388;7.000;2023-05-10T10:05:44;22.27;;;15.07;;
2313;SDS011;42279;51.388;7.000;2023-05-10T10:08:11;19.50;;;15.10;;
2313;SDS011;42279;51.388;7.000;2023-05-10T10:10:38;21.37;;;15.43;;
2313;SDS011;42279;51.388;7.000;2023-05-10T10:13:05;23.40;;;17.07;;
2313;SDS011;42279;51.388;7.000;2023-05-10T10:15:32;19.30;;;15.10;;
2313;SDS011;42279;51.388;7.000;2023-05-10T10:17:58;21.83;;;15.33;;
2313;SDS011;42279;51.388;7.000;2023-05-10T10:20:25;16.10;;;13.37;;
2313;SDS011;42279;51.388;7.000;2023-05-10T10:22:51;19.57;;;13.40;;
2313;SDS011;42279;51.388;7.000;2023-05-10T10:25:18;21.83;;;14.60;;
2313;SDS011;42279;51.388;7.000;2023-05-10T10:30:31;15.63;;;13.97;;
2313;SDS011;42279;51.388;7.000;2023-05-10T10:33:18;15.40;;;13.63;;
2313;SDS011;42279;51.388;7.000;2023-05-10T10:35:52;26.47;;;12.30;;
2313;SDS011;42279;51.388;7.000;2023-05-10T10:38:18;16.23;;;13.13;;
2313;SDS011;42279;51.388;7.000;2023-05-10T10:40:44;15.60;;;13.30;;
2313;SDS011;42279;51.388;7.000;2023-05-10T10:43:27;13.00;;;11.67;;
2313;SDS011;42279;51.388;7.000;2023-05-10T10:46:13;15.27;;;12.90;;
2313;SDS011;42279;51.388;7.000;2023-05-10T10:48:40;15.00;;;13.43;;
2313;SDS011;42279;51.388;7.000;2023-05-10T10:51:06;21.20;;;14.73;;
2313;SDS011;42279;51.388;7.000;2023-05-10T10:53:32;17.20;;;14.07;;
2313;SDS011;42279;51.388;7.000;2023-05-10T10:56:02;16.23;;;14.63;;
2313;SDS011;42279;51.388;7.000;2023-05-10T10:58:31;17.10;;;13.87;;
2313;SDS011;42279;51.388;7.000;2023-05-10T11:03:35;19.67;;;15.73;;
2313;SDS011;42279;51.388;7.000;2023-05-10T11:06:01;19.90;;;16.50;;
2313;SDS011;42279;51.388;7.000;2023-05-10T11:08:31;18.00;;;15.57;;
2313;SDS011;42279;51.388;7.000;2023-05-10T11:13:41;19.40;;;16.87;;
2313;SDS011;42279;51.388;7.000;2023-05-10T11:16:12;18.80;;;16.80;;
2313;SDS011;42279;51.388;7.000;2023-05-10T11:18:38;19.33;;;15.80;;
2313;SDS011;42279;51.388;7.000;2023-05-10T11:21:04;18.53;;;16.40;;
2313;SDS011;42279;51.388;7.000;2023-05-10T11:26:13;17.20;;;14.13;;
2313;SDS011;42279;51.388;7.000;2023-05-10T11:28:43;19.27;;;14.17;;
2313;SDS011;42279;51.388;7.000;2023-05-10T11:31:09;17.40;;;14.93;;
2313;SDS011;42279;51.388;7.000;2023-05-10T11:33:47;15.00;;;11.90;;
2313;SDS011;42279;51.388;7.000;2023-05-10T11:38:57;18.83;;;12.87;;
2313;SDS011;42279;51.388;7.000;2023-05-10T11:41:24;14.90;;;13.20;;
2313;SDS011;42279;51.388;7.000;2023-05-10T11:43:51;14.53;;;13.03;;
2313;SDS011;42279;51.388;7.000;2023-05-10T11:46:18;19.20;;;14.10;;
2313;SDS011;42279;51.388;7.000;2023-05-10T11:48:45;14.13;;;12.03;;
2313;SDS011;42279;51.388;7.000;2023-05-10T11:51:12;14.60;;;11.20;;
2313;SDS011;42279;51.388;7.000;2023-05-10T11:53:38;11.90;;;10.80;;
2313;SDS011;42279;51.388;7.000;2023-05-10T11:56:08;11.37;;;10.47;;
2313;SDS011;42279;51.388;7.000;2023-05-10T11:58:34;12.73;;;11.43;;
2313;SDS011;42279;51.388;7.000;2023-05-10T12:01:01;13.17;;;11.97;;
2313;SDS011;42279;51.388;7.000;2023-05-10T12:03:28;13.07;;;11.77;;
2313;SDS011;42279;51.388;7.000;2023-05-10T12:05:54;14.67;;;10.73;;
2313;SDS011;42279;51.388;7.000;2023-05-10T12:08:21;12.37;;;11.23;;
2313;SDS011;42279;51.388;7.000;2023-05-10T12:10:48;12.77;;;11.57;;
2313;SDS011;42279;51.388;7.000;2023-05-10T12:13:14;13.03;;;11.73;;
2313;SDS011;42279;51.388;7.000;2023-05-10T12:15:40;12.83;;;11.63;;
2313;SDS011;42279;51.388;7.000;2023-05-10T12:18:13;13.47;;;11.47;;
2313;SDS011;42279;51.388;7.000;2023-05-10T12:20:42;12.50;;;11.30;;
2313;SDS011;42279;51.388;7.000;2023-05-10T12:23:13;13.30;;;12.10;;
2313;SDS011;42279;51.388;7.000;2023-05-10T12:25:39;13.67;;;12.27;;
2313;SDS011;42279;51.388;7.000;2023-05-10T12:28:07;14.43;;;12.90;;
2313;SDS011;42279;51.388;7.000;2023-05-10T12:30:34;15.27;;;13.50;;
2313;SDS011;42279;51.388;7.000;2023-05-10T12:33:21;14.67;;;13.13;;
2313;SDS011;42279;51.388;7.000;2023-05-10T12:35:47;14.13;;;12.73;;
2313;SDS011;42279;51.388;7.000;2023-05-10T12:38:33;12.77;;;11.57;;
2313;SDS011;42279;51.388;7.000;2023-05-10T12:41:00;14.83;;;13.37;;
2313;SDS011;42279;51.388;7.000;2023-05-10T12:43:27;15.47;;;12.63;;
2313;SDS011;42279;51.388;7.000;2023-05-10T12:45:53;14.30;;;13.13;;
2313;SDS011;42279;51.388;7.000;2023-05-10T12:48:19;13.80;;;12.70;;
2313;SDS011;42279;51.388;7.000;2023-05-10T12:50:45;12.60;;;11.47;;
2313;SDS011;42279;51.388;7.000;2023-05-10T12:53:13;13.00;;;11.80;;
2313;SDS011;42279;51.388;7.000;2023-05-10T12:55:40;12.00;;;11.00;;
2313;SDS011;42279;51.388;7.000;2023-05-10T12:58:06;12.33;;;11.20;;
2313;SDS011;42279;51.388;7.000;2023-05-10T13:00:32;14.53;;;13.30;;
2313;SDS011;42279;51.388;7.000;2023-05-10T13:02:58;13.80;;;12.20;;
2313;SDS011;42279;51.388;7.000;2023-05-10T13:05:24;12.73;;;11.63;;
2313;SDS011;42279;51.388;7.000;2023-05-10T13:07:50;10.97;;;9.97;;
2313;SDS011;42279;51.388;7.000;2023-05-10T13:10:16;11.63;;;10.80;;
2313;SDS011;42279;51.388;7.000;2023-05-10T13:12:42;11.73;;;10.67;;
2313;SDS011;42279;51.388;7.000;2023-05-10T13:15:08;9.23;;;8.60;;
2313;SDS011;42279;51.388;7.000;2023-05-10T13:17:34;10.27;;;9.17;;
2313;SDS011;42279;51.388;7.000;2023-05-10T13:20:00;8.40;;;7.70;;
2313;SDS011;42279;51.388;7.000;2023-05-10T13:22:26;9.53;;;8.93;;
2313;SDS011;42279;51.388;7.000;2023-05-10T13:24:52;9.17;;;8.57;;
2313;SDS011;42279;51.388;7.000;2023-05-10T13:27:18;10.37;;;9.43;;
2313;SDS011;42279;51.388;7.000;2023-05-10T13:29:44;9.30;;;8.50;;
2313;SDS011;42279;51.388;7.000;2023-05-10T13:32:10;8.97;;;8.40;;
2313;SDS011;42279;51.388;7.000;2023-05-10T13:34:36;8.40;;;7.90;;
2313;SDS011;42279;51.388;7.000;2023-05-10T13:37:02;11.00;;;10.17;;
2313;SDS011;42279;51.388;7.000;2023-05-10T13:39:28;8.87;;;7.97;;
2313;SDS011;42279;51.388;7.000;2023-05-10T13:41:58;8.53;;;7.73;;
2313;SDS011;42279;51.388;7.000;2023-05-10T13:44:24;9.00;;;8.40;;
2313;SDS011;42279;51.388;7.000;2023-05-10T13:46:50;6.83;;;6.43;;
2313;SDS011;42279;51.388;7.000;2023-05-10T13:49:16;8.43;;;7.70;;
2313;SDS011;42279;51.388;7.000;2023-05-10T13:51:43;7.83;;;7.17;;
2313;SDS011;42279;51.388;7.000;2023-05-10T13:54:09;9.13;;;8.50;;
2313;SDS011;42279;51.388;7.000;2023-05-10T13:56:35;10.23;;;9.43;;
2313;SDS011;42279;51.388;7.000;2023-05-10T13:59:01;10.83;;;9.93;;
2313;SDS011;42279;51.388;7.000;2023-05-10T14:01:27;9.40;;;8.70;;
2313;SDS011;42279;51.388;7.000;2023-05-10T14:03:53;9.40;;;8.70;;
2313;SDS011;42279;51.388;7.000;2023-05-10T14:06:19;12.90;;;11.70;;
2313;SDS011;42279;51.388;7.000;2023-05-10T14:08:45;9.93;;;9.13;;
2313;SDS011;42279;51.388;7.000;2023-05-10T14:11:11;9.80;;;8.83;;
2313;SDS011;42279;51.388;7.000;2023-05-10T14:13:37;9.50;;;8.47;;
2313;SDS011;42279;51.388;7.000;2023-05-10T14:16:03;11.50;;;10.57;;
2313;SDS011;42279;51.388;7.000;2023-05-10T14:18:30;10.67;;;9.83;;
2313;SDS011;42279;51.388;7.000;2023-05-10T14:20:56;11.47;;;10.33;;
2313;SDS011;42279;51.388;7.000;2023-05-10T14:23:22;9.90;;;9.10;;
2313;SDS011;42279;51.388;7.000;2023-05-10T14:25:53;10.73;;;9.87;;
2313;SDS011;42279;51.388;7.000;2023-05-10T14:28:19;9.63;;;8.93;;
2313;SDS011;42279;51.388;7.000;2023-05-10T14:30:46;10.20;;;9.30;;
2313;SDS011;42279;51.388;7.000;2023-05-10T14:33:12;9.83;;;9.10;;
2313;SDS011;42279;51.388;7.000;2023-05-10T14:35:38;11.70;;;10.70;;
2313;SDS011;42279;51.388;7.000;2023-05-10T14:38:04;11.53;;;10.63;;
2313;SDS011;42279;51.388;7.000;2023-05-10T14:40:30;12.40;;;11.40;;
2313;SDS011;42279;51.388;7.000;2023-05-10T14:42:56;12.70;;;11.60;;
2313;SDS011;42279;51.388;7.000;2023-05-10T14:45:22;12.33;;;11.13;;
2313;SDS011;42279;51.388;7.000;2023-05-10T14:47:49;11.53;;;10.60;;
2313;SDS011;42279;51.388;7.000;2023-05-10T14:50:15;11.97;;;11.07;;
2313;SDS011;42279;51.388;7.000;2023-05-10T14:52:42;11.40;;;10.60;;
2313;SDS011;42279;51.388;7.000;2023-05-10T14:55:09;13.30;;;12.10;;
2313;SDS011;42279;51.388;7.000;2023-05-10T14:57:35;11.37;;;10.30;;
2313;SDS011;42279;51.388;7.000;2023-05-10T15:00:02;12.60;;;11.50;;
2313;SDS011;42279;51.388;7.000;2023-05-10T15:02:28;13.37;;;12.17;;
2313;SDS011;42279;51.388;7.000;2023-05-10T15:04:54;12.50;;;11.40;;
2313;SDS011;42279;51.388;7.000;2023-05-10T15:07:20;12.43;;;11.40;;
2313;SDS011;42279;51.388;7.000;2023-05-10T15:09:46;13.73;;;12.53;;
2313;SDS011;42279;51.388;7.000;2023-05-10T15:12:12;13.13;;;11.93;;
2313;SDS011;42279;51.388;7.000;2023-05-10T15:14:38;12.30;;;11.30;;